sensor_id;sensor_type;location;lat;lon;timestamp;P1;durP1;ratioP1;P2;durP2;ratioP2
64252;SDS011;50592;52.958;-7.470;2022-12-10T00:01:13;39.13;;;21.27;;
64252;SDS011;50592;52.958;-7.470;2022-12-10T00:03:41;42.05;;;20.30;;
64252;SDS011;50592;52.958;-7.470;2022-12-10T00:06:09;30.98;;;17.13;;
64252;SDS011;50592;52.958;-7.470;2022-12-10T00:08:38;30.90;;;16.92;;
64252;SDS011;50592;52.958;-7.470;2022-12-10T00:11:06;31.83;;;18.15;;
64252;SDS011;50592;52.958;-7.470;2022-12-10T00:13:34;28.75;;;17.17;;
64252;SDS011;50592;52.958;-7.470;2022-12-10T00:16:01;32.33;;;16.33;;
64252;SDS011;50592;52.958;-7.470;2022-12-10T00:18:28;27.35;;;16.77;;
64252;SDS011;50592;52.958;-7.470;2022-12-10T00:20:56;28.70;;;15.20;;
64252;SDS011;50592;52.958;-7.470;2022-12-10T00:23:22;27.75;;;14.93;;
64252;SDS011;50592;52.958;-7.470;2022-12-10T00:25:48;26.40;;;15.80;;
64252;SDS011;50592;52.958;-7.470;2022-12-10T00:28:15;28.52;;;15.70;;
64252;SDS011;50592;52.958;-7.470;2022-12-10T00:30:42;26.77;;;14.95;;
64252;SDS011;50592;52.958;-7.470;2022-12-10T00:33:08;26.08;;;15.52;;
64252;SDS011;50592;52.958;-7.470;2022-12-10T00:35:36;28.65;;;14.98;;
64252;SDS011;50592;52.958;-7.470;2022-12-10T00:38:02;26.30;;;14.48;;
64252;SDS011;50592;52.958;-7.470;2022-12-10T00:40:29;25.95;;;14.15;;
64252;SDS011;50592;52.958;-7.470;2022-12-10T00:42:54;27.08;;;14.18;;
64252;SDS011;50592;52.958;-7.470;2022-12-10T00:45:21;24.67;;;14.27;;
64252;SDS011;50592;52.958;-7.470;2022-12-10T00:47:49;25.73;;;13.63;;
64252;SDS011;50592;52.958;-7.470;2022-12-10T00:50:18;22.10;;;12.98;;
64252;SDS011;50592;52.958;-7.470;2022-12-10T00:52:46;23.92;;;14.07;;
64252;SDS011;50592;52.958;-7.470;2022-12-10T00:55:12;20.92;;;13.27;;
64252;SDS011;50592;52.958;-7.470;2022-12-10T00:57:41;24.00;;;13.15;;
64252;SDS011;50592;52.958;-7.470;2022-12-10T01:00:07;26.83;;;13.05;;
64252;SDS011;50592;52.958;-7.470;2022-12-10T01:02:34;25.30;;;14.82;;
64252;SDS011;50592;52.958;-7.470;2022-12-10T01:05:03;23.05;;;12.98;;
64252;SDS011;50592;52.958;-7.470;2022-12-10T01:07:31;25.17;;;13.68;;
64252;SDS011;50592;52.958;-7.470;2022-12-10T01:09:59;23.17;;;13.40;;
64252;SDS011;50592;52.958;-7.470;2022-12-10T01:12:37;21.85;;;12.20;;
64252;SDS011;50592;52.958;-7.470;2022-12-10T01:15:06;28.92;;;13.27;;
64252;SDS011;50592;52.958;-7.470;2022-12-10T01:17:50;25.05;;;12.45;;
64252;SDS011;50592;52.958;-7.470;2022-12-10T01:20:22;23.08;;;13.45;;
64252;SDS011;50592;52.958;-7.470;2022-12-10T01:22:49;23.27;;;13.15;;
64252;SDS011;50592;52.958;-7.470;2022-12-10T01:25:18;23.75;;;12.82;;
64252;SDS011;50592;52.958;-7.470;2022-12-10T01:27:44;23.02;;;13.05;;
64252;SDS011;50592;52.958;-7.470;2022-12-10T01:30:10;26.35;;;13.60;;
64252;SDS011;50592;52.958;-7.470;2022-12-10T01:32:36;28.55;;;12.93;;
64252;SDS011;50592;52.958;-7.470;2022-12-10T01:35:08;20.88;;;12.07;;
64252;SDS011;50592;52.958;-7.470;2022-12-10T01:37:34;21.02;;;13.38;;
64252;SDS011;50592;52.958;-7.470;2022-12-10T01:40:00;20.90;;;12.15;;
64252;SDS011;50592;52.958;-7.470;2022-12-10T01:42:27;28.67;;;13.32;;
64252;SDS011;50592;52.958;-7.470;2022-12-10T01:45:10;20.13;;;12.70;;
64252;SDS011;50592;52.958;-7.470;2022-12-10T01:47:48;26.77;;;13.52;;
64252;SDS011;50592;52.958;-7.470;2022-12-10T01:50:19;18.77;;;11.75;;
64252;SDS011;50592;52.958;-7.470;2022-12-10T01:52:49;23.70;;;13.35;;
64252;SDS011;50592;52.958;-7.470;2022-12-10T01:58:08;25.25;;;13.65;;
64252;SDS011;50592;52.958;-7.470;2022-12-10T02:00:45;28.42;;;12.75;;
64252;SDS011;50592;52.958;-7.470;2022-12-10T02:03:23;25.27;;;13.30;;
64252;SDS011;50592;52.958;-7.470;2022-12-10T02:06:13;20.67;;;10.77;;
64252;SDS011;50592;52.958;-7.470;2022-12-10T02:09:25;20.20;;;11.30;;
64252;SDS011;50592;52.958;-7.470;2022-12-10T02:12:17;22.92;;;11.50;;
64252;SDS011;50592;52.958;-7.470;2022-12-10T02:15:15;21.48;;;11.25;;
64252;SDS011;50592;52.958;-7.470;2022-12-10T02:20:45;22.75;;;11.52;;
64252;SDS011;50592;52.958;-7.470;2022-12-10T02:23:24;18.85;;;11.15;;
64252;SDS011;50592;52.958;-7.470;2022-12-10T02:26:05;19.30;;;10.55;;
64252;SDS011;50592;52.958;-7.470;2022-12-10T02:31:25;21.42;;;11.32;;
64252;SDS011;50592;52.958;-7.470;2022-12-10T02:34:00;19.75;;;11.82;;
64252;SDS011;50592;52.958;-7.470;2022-12-10T02:36:32;18.85;;;10.50;;
64252;SDS011;50592;52.958;-7.470;2022-12-10T02:39:05;20.75;;;10.60;;
64252;SDS011;50592;52.958;-7.470;2022-12-10T02:41:46;29.13;;;12.00;;
64252;SDS011;50592;52.958;-7.470;2022-12-10T02:44:20;18.33;;;10.35;;
64252;SDS011;50592;52.958;-7.470;2022-12-10T02:46:50;19.65;;;11.52;;
64252;SDS011;50592;52.958;-7.470;2022-12-10T02:49:19;20.70;;;10.98;;
64252;SDS011;50592;52.958;-7.470;2022-12-10T02:51:51;20.95;;;11.02;;
64252;SDS011;50592;52.958;-7.470;2022-12-10T02:54:44;21.55;;;11.48;;
64252;SDS011;50592;52.958;-7.470;2022-12-10T02:57:32;29.40;;;10.90;;
64252;SDS011;50592;52.958;-7.470;2022-12-10T03:03:05;19.17;;;10.25;;
64252;SDS011;50592;52.958;-7.470;2022-12-10T03:08:34;22.33;;;12.90;;
64252;SDS011;50592;52.958;-7.470;2022-12-10T03:11:14;18.52;;;11.00;;
64252;SDS011;50592;52.958;-7.470;2022-12-10T03:13:47;17.73;;;10.80;;
64252;SDS011;50592;52.958;-7.470;2022-12-10T03:16:14;18.80;;;10.80;;
64252;SDS011;50592;52.958;-7.470;2022-12-10T03:18:42;20.20;;;10.73;;
64252;SDS011;50592;52.958;-7.470;2022-12-10T03:21:11;21.80;;;11.13;;
64252;SDS011;50592;52.958;-7.470;2022-12-10T03:24:27;24.08;;;10.20;;
64252;SDS011;50592;52.958;-7.470;2022-12-10T03:26:43;20.50;;;10.35;;
64252;SDS011;50592;52.958;-7.470;2022-12-10T03:29:26;19.92;;;10.35;;
64252;SDS011;50592;52.958;-7.470;2022-12-10T03:32:08;18.13;;;10.43;;
64252;SDS011;50592;52.958;-7.470;2022-12-10T03:35:13;17.45;;;9.50;;
64252;SDS011;50592;52.958;-7.470;2022-12-10T03:37:52;17.63;;;9.63;;
64252;SDS011;50592;52.958;-7.470;2022-12-10T03:40:24;14.38;;;9.07;;
64252;SDS011;50592;52.958;-7.470;2022-12-10T03:42:51;18.50;;;9.55;;
64252;SDS011;50592;52.958;-7.470;2022-12-10T03:45:19;16.40;;;9.55;;
64252;SDS011;50592;52.958;-7.470;2022-12-10T03:47:46;20.75;;;9.57;;
64252;SDS011;50592;52.958;-7.470;2022-12-10T03:50:11;19.55;;;9.88;;
64252;SDS011;50592;52.958;-7.470;2022-12-10T03:52:39;15.32;;;9.40;;
64252;SDS011;50592;52.958;-7.470;2022-12-10T03:55:05;18.48;;;9.23;;
64252;SDS011;50592;52.958;-7.470;2022-12-10T03:57:32;18.05;;;9.80;;
64252;SDS011;50592;52.958;-7.470;2022-12-10T03:59:59;20.33;;;9.90;;
64252;SDS011;50592;52.958;-7.470;2022-12-10T04:02:24;16.77;;;9.20;;
64252;SDS011;50592;52.958;-7.470;2022-12-10T04:04:59;16.52;;;10.30;;
64252;SDS011;50592;52.958;-7.470;2022-12-10T04:07:25;16.80;;;9.30;;
64252;SDS011;50592;52.958;-7.470;2022-12-10T04:09:51;17.60;;;10.32;;
64252;SDS011;50592;52.958;-7.470;2022-12-10T04:12:16;16.58;;;10.15;;
64252;SDS011;50592;52.958;-7.470;2022-12-10T04:14:45;19.25;;;10.32;;
64252;SDS011;50592;52.958;-7.470;2022-12-10T04:17:31;21.25;;;9.20;;
64252;SDS011;50592;52.958;-7.470;2022-12-10T04:19:58;20.35;;;9.80;;
64252;SDS011;50592;52.958;-7.470;2022-12-10T04:22:24;14.32;;;9.05;;
64252;SDS011;50592;52.958;-7.470;2022-12-10T04:25:10;16.73;;;8.95;;
64252;SDS011;50592;52.958;-7.470;2022-12-10T04:27:58;17.35;;;8.93;;
64252;SDS011;50592;52.958;-7.470;2022-12-10T04:30:24;17.10;;;8.93;;
64252;SDS011;50592;52.958;-7.470;2022-12-10T04:32:50;16.95;;;9.40;;
64252;SDS011;50592;52.958;-7.470;2022-12-10T04:35:16;15.38;;;8.75;;
64252;SDS011;50592;52.958;-7.470;2022-12-10T04:37:42;18.23;;;8.68;;
64252;SDS011;50592;52.958;-7.470;2022-12-10T04:40:08;17.05;;;8.98;;
64252;SDS011;50592;52.958;-7.470;2022-12-10T04:42:35;17.33;;;9.07;;
64252;SDS011;50592;52.958;-7.470;2022-12-10T04:45:00;13.65;;;8.00;;
64252;SDS011;50592;52.958;-7.470;2022-12-10T04:47:26;16.85;;;9.32;;
64252;SDS011;50592;52.958;-7.470;2022-12-10T04:49:52;17.08;;;8.98;;
64252;SDS011;50592;52.958;-7.470;2022-12-10T04:52:18;23.30;;;8.70;;
64252;SDS011;50592;52.958;-7.470;2022-12-10T04:54:44;15.80;;;8.90;;
64252;SDS011;50592;52.958;-7.470;2022-12-10T04:57:11;15.00;;;7.97;;
64252;SDS011;50592;52.958;-7.470;2022-12-10T04:59:37;14.45;;;7.40;;
64252;SDS011;50592;52.958;-7.470;2022-12-10T05:02:04;13.43;;;8.02;;
64252;SDS011;50592;52.958;-7.470;2022-12-10T05:04:30;14.32;;;7.15;;
64252;SDS011;50592;52.958;-7.470;2022-12-10T05:06:59;12.15;;;7.75;;
64252;SDS011;50592;52.958;-7.470;2022-12-10T05:09:26;12.60;;;7.10;;
64252;SDS011;50592;52.958;-7.470;2022-12-10T05:11:54;12.05;;;7.75;;
64252;SDS011;50592;52.958;-7.470;2022-12-10T05:14:20;10.98;;;6.93;;
64252;SDS011;50592;52.958;-7.470;2022-12-10T05:16:55;13.68;;;6.78;;
64252;SDS011;50592;52.958;-7.470;2022-12-10T05:19:30;14.27;;;7.53;;
64252;SDS011;50592;52.958;-7.470;2022-12-10T05:21:56;14.13;;;8.35;;
64252;SDS011;50592;52.958;-7.470;2022-12-10T05:24:40;12.60;;;7.47;;
64252;SDS011;50592;52.958;-7.470;2022-12-10T05:27:09;13.02;;;7.75;;
64252;SDS011;50592;52.958;-7.470;2022-12-10T05:29:38;12.65;;;7.57;;
64252;SDS011;50592;52.958;-7.470;2022-12-10T05:32:04;13.05;;;7.47;;
64252;SDS011;50592;52.958;-7.470;2022-12-10T05:34:35;16.27;;;8.90;;
64252;SDS011;50592;52.958;-7.470;2022-12-10T05:37:10;16.13;;;8.98;;
64252;SDS011;50592;52.958;-7.470;2022-12-10T05:39:36;14.88;;;7.88;;
64252;SDS011;50592;52.958;-7.470;2022-12-10T05:42:02;13.70;;;7.28;;
64252;SDS011;50592;52.958;-7.470;2022-12-10T05:44:42;11.77;;;7.07;;
64252;SDS011;50592;52.958;-7.470;2022-12-10T05:47:07;14.43;;;7.82;;
64252;SDS011;50592;52.958;-7.470;2022-12-10T05:49:33;12.05;;;7.20;;
64252;SDS011;50592;52.958;-7.470;2022-12-10T05:51:59;17.15;;;8.65;;
64252;SDS011;50592;52.958;-7.470;2022-12-10T05:54:26;14.13;;;8.05;;
64252;SDS011;50592;52.958;-7.470;2022-12-10T05:56:59;12.82;;;6.97;;
64252;SDS011;50592;52.958;-7.470;2022-12-10T05:59:30;12.00;;;7.35;;
64252;SDS011;50592;52.958;-7.470;2022-12-10T06:01:56;13.77;;;7.43;;
64252;SDS011;50592;52.958;-7.470;2022-12-10T06:04:22;14.43;;;7.70;;
64252;SDS011;50592;52.958;-7.470;2022-12-10T06:06:48;12.27;;;7.22;;
64252;SDS011;50592;52.958;-7.470;2022-12-10T06:09:17;18.92;;;8.02;;
64252;SDS011;50592;52.958;-7.470;2022-12-10T06:11:52;13.23;;;7.78;;
64252;SDS011;50592;52.958;-7.470;2022-12-10T06:14:18;11.23;;;7.13;;
64252;SDS011;50592;52.958;-7.470;2022-12-10T06:16:44;16.20;;;7.68;;
64252;SDS011;50592;52.958;-7.470;2022-12-10T06:19:10;13.93;;;8.00;;
64252;SDS011;50592;52.958;-7.470;2022-12-10T06:21:38;11.68;;;6.88;;
64252;SDS011;50592;52.958;-7.470;2022-12-10T06:24:04;12.90;;;8.00;;
64252;SDS011;50592;52.958;-7.470;2022-12-10T06:26:30;13.85;;;7.75;;
64252;SDS011;50592;52.958;-7.470;2022-12-10T06:28:56;16.08;;;8.25;;
64252;SDS011;50592;52.958;-7.470;2022-12-10T06:31:22;10.57;;;6.65;;
64252;SDS011;50592;52.958;-7.470;2022-12-10T06:33:48;11.80;;;6.82;;
64252;SDS011;50592;52.958;-7.470;2022-12-10T06:36:15;14.30;;;7.10;;
64252;SDS011;50592;52.958;-7.470;2022-12-10T06:38:42;12.20;;;7.70;;
64252;SDS011;50592;52.958;-7.470;2022-12-10T06:41:10;11.35;;;7.20;;
64252;SDS011;50592;52.958;-7.470;2022-12-10T06:43:37;13.73;;;7.53;;
64252;SDS011;50592;52.958;-7.470;2022-12-10T06:46:08;11.88;;;6.72;;
64252;SDS011;50592;52.958;-7.470;2022-12-10T06:48:36;10.38;;;6.75;;
64252;SDS011;50592;52.958;-7.470;2022-12-10T06:51:03;11.90;;;6.88;;
64252;SDS011;50592;52.958;-7.470;2022-12-10T06:53:30;12.43;;;7.05;;
64252;SDS011;50592;52.958;-7.470;2022-12-10T06:55:58;12.55;;;6.50;;
64252;SDS011;50592;52.958;-7.470;2022-12-10T06:58:26;12.98;;;7.55;;
64252;SDS011;50592;52.958;-7.470;2022-12-10T07:01:01;10.93;;;6.90;;
64252;SDS011;50592;52.958;-7.470;2022-12-10T07:03:31;10.85;;;6.85;;
64252;SDS011;50592;52.958;-7.470;2022-12-10T07:05:58;10.73;;;6.85;;
64252;SDS011;50592;52.958;-7.470;2022-12-10T07:08:24;13.50;;;6.07;;
64252;SDS011;50592;52.958;-7.470;2022-12-10T07:10:50;9.10;;;6.07;;
64252;SDS011;50592;52.958;-7.470;2022-12-10T07:13:16;10.85;;;6.47;;
64252;SDS011;50592;52.958;-7.470;2022-12-10T07:15:42;13.10;;;6.38;;
64252;SDS011;50592;52.958;-7.470;2022-12-10T07:18:08;10.82;;;5.90;;
64252;SDS011;50592;52.958;-7.470;2022-12-10T07:20:34;10.57;;;5.68;;
64252;SDS011;50592;52.958;-7.470;2022-12-10T07:22:59;11.57;;;6.30;;
64252;SDS011;50592;52.958;-7.470;2022-12-10T07:25:26;9.50;;;6.38;;
64252;SDS011;50592;52.958;-7.470;2022-12-10T07:27:52;9.98;;;6.05;;
64252;SDS011;50592;52.958;-7.470;2022-12-10T07:30:18;11.18;;;6.43;;
64252;SDS011;50592;52.958;-7.470;2022-12-10T07:32:44;12.55;;;6.30;;
64252;SDS011;50592;52.958;-7.470;2022-12-10T07:35:10;11.23;;;6.32;;
64252;SDS011;50592;52.958;-7.470;2022-12-10T07:37:36;8.98;;;6.15;;
64252;SDS011;50592;52.958;-7.470;2022-12-10T07:40:05;10.73;;;6.03;;
64252;SDS011;50592;52.958;-7.470;2022-12-10T07:42:31;10.38;;;5.03;;
64252;SDS011;50592;52.958;-7.470;2022-12-10T07:44:58;9.75;;;5.00;;
64252;SDS011;50592;52.958;-7.470;2022-12-10T07:47:26;34.33;;;23.20;;
64252;SDS011;50592;52.958;-7.470;2022-12-10T07:49:53;140.60;;;82.53;;
64252;SDS011;50592;52.958;-7.470;2022-12-10T07:52:38;48.97;;;29.88;;
64252;SDS011;50592;52.958;-7.470;2022-12-10T07:55:08;19.25;;;11.65;;
64252;SDS011;50592;52.958;-7.470;2022-12-10T07:57:34;40.67;;;25.35;;
64252;SDS011;50592;52.958;-7.470;2022-12-10T08:00:00;21.48;;;14.85;;
64252;SDS011;50592;52.958;-7.470;2022-12-10T08:02:37;29.30;;;18.25;;
64252;SDS011;50592;52.958;-7.470;2022-12-10T08:05:03;31.75;;;22.67;;
64252;SDS011;50592;52.958;-7.470;2022-12-10T08:07:32;24.85;;;17.55;;
64252;SDS011;50592;52.958;-7.470;2022-12-10T08:10:08;25.20;;;18.77;;
64252;SDS011;50592;52.958;-7.470;2022-12-10T08:12:34;16.52;;;11.73;;
64252;SDS011;50592;52.958;-7.470;2022-12-10T08:15:15;13.02;;;7.35;;
64252;SDS011;50592;52.958;-7.470;2022-12-10T08:17:47;10.02;;;6.53;;
64252;SDS011;50592;52.958;-7.470;2022-12-10T08:20:13;11.45;;;7.82;;
64252;SDS011;50592;52.958;-7.470;2022-12-10T08:22:39;11.48;;;5.82;;
64252;SDS011;50592;52.958;-7.470;2022-12-10T08:25:05;14.32;;;8.20;;
64252;SDS011;50592;52.958;-7.470;2022-12-10T08:27:33;11.52;;;6.85;;
64252;SDS011;50592;52.958;-7.470;2022-12-10T08:30:06;19.48;;;11.13;;
64252;SDS011;50592;52.958;-7.470;2022-12-10T08:32:35;21.15;;;11.65;;
64252;SDS011;50592;52.958;-7.470;2022-12-10T08:35:08;40.75;;;26.15;;
64252;SDS011;50592;52.958;-7.470;2022-12-10T08:37:34;39.88;;;24.45;;
64252;SDS011;50592;52.958;-7.470;2022-12-10T08:40:00;27.40;;;16.80;;
64252;SDS011;50592;52.958;-7.470;2022-12-10T08:42:27;16.42;;;10.27;;
64252;SDS011;50592;52.958;-7.470;2022-12-10T08:44:54;15.55;;;9.18;;
64252;SDS011;50592;52.958;-7.470;2022-12-10T08:47:23;15.40;;;7.28;;
64252;SDS011;50592;52.958;-7.470;2022-12-10T08:49:49;16.40;;;7.95;;
64252;SDS011;50592;52.958;-7.470;2022-12-10T08:52:15;14.70;;;8.15;;
64252;SDS011;50592;52.958;-7.470;2022-12-10T08:54:44;11.82;;;6.53;;
64252;SDS011;50592;52.958;-7.470;2022-12-10T08:57:09;11.18;;;6.45;;
64252;SDS011;50592;52.958;-7.470;2022-12-10T08:59:35;16.02;;;6.80;;
64252;SDS011;50592;52.958;-7.470;2022-12-10T09:02:01;16.45;;;8.38;;
64252;SDS011;50592;52.958;-7.470;2022-12-10T09:04:30;11.23;;;6.13;;
64252;SDS011;50592;52.958;-7.470;2022-12-10T09:06:56;13.57;;;5.82;;
64252;SDS011;50592;52.958;-7.470;2022-12-10T09:09:22;8.10;;;5.25;;
64252;SDS011;50592;52.958;-7.470;2022-12-10T09:11:48;11.68;;;5.82;;
64252;SDS011;50592;52.958;-7.470;2022-12-10T09:14:13;12.48;;;5.63;;
64252;SDS011;50592;52.958;-7.470;2022-12-10T09:16:39;10.15;;;5.25;;
64252;SDS011;50592;52.958;-7.470;2022-12-10T09:19:05;15.20;;;5.82;;
64252;SDS011;50592;52.958;-7.470;2022-12-10T09:21:31;25.40;;;15.95;;
64252;SDS011;50592;52.958;-7.470;2022-12-10T09:23:58;23.83;;;18.58;;
64252;SDS011;50592;52.958;-7.470;2022-12-10T09:26:24;27.63;;;21.25;;
64252;SDS011;50592;52.958;-7.470;2022-12-10T09:28:50;20.27;;;14.73;;
64252;SDS011;50592;52.958;-7.470;2022-12-10T09:31:17;14.93;;;10.40;;
64252;SDS011;50592;52.958;-7.470;2022-12-10T09:33:44;23.00;;;14.50;;
64252;SDS011;50592;52.958;-7.470;2022-12-10T09:36:12;18.10;;;12.43;;
64252;SDS011;50592;52.958;-7.470;2022-12-10T09:38:39;20.55;;;14.13;;
64252;SDS011;50592;52.958;-7.470;2022-12-10T09:51:57;12.05;;;7.47;;
64252;SDS011;50592;52.958;-7.470;2022-12-10T09:54:28;78.97;;;46.33;;
64252;SDS011;50592;52.958;-7.470;2022-12-10T09:57:35;50.55;;;27.17;;
64252;SDS011;50592;52.958;-7.470;2022-12-10T10:00:09;40.97;;;23.55;;
64252;SDS011;50592;52.958;-7.470;2022-12-10T10:02:41;26.25;;;12.18;;
64252;SDS011;50592;52.958;-7.470;2022-12-10T10:07:33;25.10;;;19.15;;
64252;SDS011;50592;52.958;-7.470;2022-12-10T10:13:16;11.07;;;5.55;;
64252;SDS011;50592;52.958;-7.470;2022-12-10T10:15:51;8.63;;;5.70;;
64252;SDS011;50592;52.958;-7.470;2022-12-10T10:21:03;11.73;;;7.13;;
64252;SDS011;50592;52.958;-7.470;2022-12-10T10:23:32;10.38;;;6.65;;
64252;SDS011;50592;52.958;-7.470;2022-12-10T10:25:58;9.23;;;6.20;;
64252;SDS011;50592;52.958;-7.470;2022-12-10T10:28:25;11.57;;;6.07;;
64252;SDS011;50592;52.958;-7.470;2022-12-10T10:30:52;13.13;;;6.90;;
64252;SDS011;50592;52.958;-7.470;2022-12-10T10:33:19;10.48;;;6.45;;
64252;SDS011;50592;52.958;-7.470;2022-12-10T10:35:50;9.02;;;6.00;;
64252;SDS011;50592;52.958;-7.470;2022-12-10T10:38:21;10.25;;;5.88;;
64252;SDS011;50592;52.958;-7.470;2022-12-10T10:40:51;13.95;;;6.15;;
64252;SDS011;50592;52.958;-7.470;2022-12-10T10:43:21;9.43;;;5.30;;
64252;SDS011;50592;52.958;-7.470;2022-12-10T10:46:24;10.13;;;5.97;;
64252;SDS011;50592;52.958;-7.470;2022-12-10T10:48:46;8.43;;;5.50;;
64252;SDS011;50592;52.958;-7.470;2022-12-10T10:53:47;11.48;;;6.72;;
64252;SDS011;50592;52.958;-7.470;2022-12-10T11:01:42;10.07;;;5.85;;
64252;SDS011;50592;52.958;-7.470;2022-12-10T11:04:15;9.55;;;5.65;;
64252;SDS011;50592;52.958;-7.470;2022-12-10T11:06:42;9.88;;;5.85;;
64252;SDS011;50592;52.958;-7.470;2022-12-10T11:09:24;7.57;;;5.47;;
64252;SDS011;50592;52.958;-7.470;2022-12-10T11:12:00;7.78;;;5.05;;
64252;SDS011;50592;52.958;-7.470;2022-12-10T11:14:38;8.43;;;6.00;;
64252;SDS011;50592;52.958;-7.470;2022-12-10T11:19:34;25.45;;;16.08;;
64252;SDS011;50592;52.958;-7.470;2022-12-10T11:22:16;19.08;;;12.93;;
64252;SDS011;50592;52.958;-7.470;2022-12-10T11:24:45;26.63;;;15.40;;
64252;SDS011;50592;52.958;-7.470;2022-12-10T11:30:11;28.55;;;16.77;;
64252;SDS011;50592;52.958;-7.470;2022-12-10T11:39:00;57.65;;;29.17;;
64252;SDS011;50592;52.958;-7.470;2022-12-10T11:55:46;37.25;;;21.42;;
64252;SDS011;50592;52.958;-7.470;2022-12-10T12:01:11;114.38;;;56.92;;
64252;SDS011;50592;52.958;-7.470;2022-12-10T12:06:43;100.05;;;47.90;;
64252;SDS011;50592;52.958;-7.470;2022-12-10T12:12:09;113.75;;;52.33;;
64252;SDS011;50592;52.958;-7.470;2022-12-10T12:14:57;88.32;;;39.88;;
64252;SDS011;50592;52.958;-7.470;2022-12-10T12:17:31;74.15;;;31.75;;
64252;SDS011;50592;52.958;-7.470;2022-12-10T12:20:05;70.85;;;30.35;;
64252;SDS011;50592;52.958;-7.470;2022-12-10T12:22:42;64.00;;;28.55;;
64252;SDS011;50592;52.958;-7.470;2022-12-10T12:27:48;57.60;;;24.95;;
64252;SDS011;50592;52.958;-7.470;2022-12-10T12:30:21;120.85;;;48.88;;
64252;SDS011;50592;52.958;-7.470;2022-12-10T12:32:59;28.88;;;14.02;;
64252;SDS011;50592;52.958;-7.470;2022-12-10T12:41:04;14.90;;;7.88;;
64252;SDS011;50592;52.958;-7.470;2022-12-10T12:43:50;16.48;;;10.15;;
64252;SDS011;50592;52.958;-7.470;2022-12-10T12:49:20;16.92;;;9.98;;
64252;SDS011;50592;52.958;-7.470;2022-12-10T12:54:51;9.38;;;6.07;;
64252;SDS011;50592;52.958;-7.470;2022-12-10T12:57:29;11.13;;;6.40;;
64252;SDS011;50592;52.958;-7.470;2022-12-10T13:00:05;11.00;;;6.38;;
64252;SDS011;50592;52.958;-7.470;2022-12-10T13:05:27;16.95;;;9.15;;
64252;SDS011;50592;52.958;-7.470;2022-12-10T13:10:58;11.20;;;7.18;;
64252;SDS011;50592;52.958;-7.470;2022-12-10T13:13:40;12.18;;;7.65;;
64252;SDS011;50592;52.958;-7.470;2022-12-10T13:16:46;13.32;;;7.35;;
64252;SDS011;50592;52.958;-7.470;2022-12-10T13:22:08;15.70;;;9.57;;
64252;SDS011;50592;52.958;-7.470;2022-12-10T13:25:56;17.45;;;11.43;;
64252;SDS011;50592;52.958;-7.470;2022-12-10T13:36:28;20.88;;;11.27;;
64252;SDS011;50592;52.958;-7.470;2022-12-10T13:41:30;7.63;;;4.35;;
64252;SDS011;50592;52.958;-7.470;2022-12-10T13:50:42;9.50;;;5.07;;
64252;SDS011;50592;52.958;-7.470;2022-12-10T13:56:16;9.30;;;6.85;;
64252;SDS011;50592;52.958;-7.470;2022-12-10T13:58:54;10.40;;;6.80;;
64252;SDS011;50592;52.958;-7.470;2022-12-10T14:06:57;16.05;;;8.93;;
64252;SDS011;50592;52.958;-7.470;2022-12-10T14:09:24;13.25;;;8.93;;
64252;SDS011;50592;52.958;-7.470;2022-12-10T14:11:56;17.30;;;9.10;;
64252;SDS011;50592;52.958;-7.470;2022-12-10T14:14:31;12.25;;;7.80;;
64252;SDS011;50592;52.958;-7.470;2022-12-10T14:17:05;18.02;;;8.65;;
64252;SDS011;50592;52.958;-7.470;2022-12-10T14:19:37;13.20;;;7.75;;
64252;SDS011;50592;52.958;-7.470;2022-12-10T14:22:07;25.83;;;12.70;;
64252;SDS011;50592;52.958;-7.470;2022-12-10T14:24:38;28.10;;;15.55;;
64252;SDS011;50592;52.958;-7.470;2022-12-10T14:27:27;31.95;;;19.20;;
64252;SDS011;50592;52.958;-7.470;2022-12-10T14:29:59;15.88;;;8.40;;
64252;SDS011;50592;52.958;-7.470;2022-12-10T14:32:33;12.80;;;8.50;;
64252;SDS011;50592;52.958;-7.470;2022-12-10T14:35:02;18.23;;;9.80;;
64252;SDS011;50592;52.958;-7.470;2022-12-10T14:37:34;11.23;;;7.43;;
64252;SDS011;50592;52.958;-7.470;2022-12-10T14:40:03;14.65;;;7.70;;
64252;SDS011;50592;52.958;-7.470;2022-12-10T14:42:30;10.65;;;7.65;;
64252;SDS011;50592;52.958;-7.470;2022-12-10T14:45:00;14.50;;;8.27;;
64252;SDS011;50592;52.958;-7.470;2022-12-10T14:47:36;11.52;;;7.82;;
64252;SDS011;50592;52.958;-7.470;2022-12-10T14:50:06;19.60;;;8.40;;
64252;SDS011;50592;52.958;-7.470;2022-12-10T14:52:40;13.60;;;8.43;;
64252;SDS011;50592;52.958;-7.470;2022-12-10T14:55:14;26.38;;;14.55;;
64252;SDS011;50592;52.958;-7.470;2022-12-10T14:57:47;20.63;;;11.38;;
64252;SDS011;50592;52.958;-7.470;2022-12-10T15:00:22;51.92;;;24.55;;
64252;SDS011;50592;52.958;-7.470;2022-12-10T15:02:53;98.38;;;45.45;;
64252;SDS011;50592;52.958;-7.470;2022-12-10T15:05:23;22.15;;;13.75;;
64252;SDS011;50592;52.958;-7.470;2022-12-10T15:07:59;54.70;;;26.95;;
64252;SDS011;50592;52.958;-7.470;2022-12-10T15:10:31;76.32;;;35.28;;
64252;SDS011;50592;52.958;-7.470;2022-12-10T15:12:59;29.98;;;15.75;;
64252;SDS011;50592;52.958;-7.470;2022-12-10T15:15:31;67.32;;;28.58;;
64252;SDS011;50592;52.958;-7.470;2022-12-10T15:18:42;28.67;;;11.90;;
64252;SDS011;50592;52.958;-7.470;2022-12-10T15:21:13;25.42;;;13.90;;
64252;SDS011;50592;52.958;-7.470;2022-12-10T15:23:43;20.92;;;10.55;;
64252;SDS011;50592;52.958;-7.470;2022-12-10T15:26:20;11.90;;;7.97;;
64252;SDS011;50592;52.958;-7.470;2022-12-10T15:28:48;15.07;;;7.40;;
64252;SDS011;50592;52.958;-7.470;2022-12-10T15:31:19;10.55;;;7.18;;
64252;SDS011;50592;52.958;-7.470;2022-12-10T15:33:57;9.32;;;6.20;;
64252;SDS011;50592;52.958;-7.470;2022-12-10T15:36:38;9.95;;;5.68;;
64252;SDS011;50592;52.958;-7.470;2022-12-10T15:39:27;13.05;;;5.57;;
64252;SDS011;50592;52.958;-7.470;2022-12-10T15:41:55;7.10;;;4.75;;
64252;SDS011;50592;52.958;-7.470;2022-12-10T15:46:59;3.08;;;2.70;;
64252;SDS011;50592;52.958;-7.470;2022-12-10T15:49:27;4.43;;;2.70;;
64252;SDS011;50592;52.958;-7.470;2022-12-10T15:51:53;2.67;;;2.35;;
64252;SDS011;50592;52.958;-7.470;2022-12-10T15:56:55;7.25;;;2.13;;
64252;SDS011;50592;52.958;-7.470;2022-12-10T15:59:21;2.72;;;2.00;;
64252;SDS011;50592;52.958;-7.470;2022-12-10T16:01:47;5.32;;;2.40;;
64252;SDS011;50592;52.958;-7.470;2022-12-10T16:04:12;3.13;;;2.60;;
64252;SDS011;50592;52.958;-7.470;2022-12-10T16:06:39;79.72;;;39.90;;
64252;SDS011;50592;52.958;-7.470;2022-12-10T16:09:05;10.45;;;6.68;;
64252;SDS011;50592;52.958;-7.470;2022-12-10T16:11:31;17.85;;;8.05;;
64252;SDS011;50592;52.958;-7.470;2022-12-10T16:13:57;21.92;;;10.70;;
64252;SDS011;50592;52.958;-7.470;2022-12-10T16:16:24;9.55;;;3.85;;
64252;SDS011;50592;52.958;-7.470;2022-12-10T16:18:50;5.80;;;2.35;;
64252;SDS011;50592;52.958;-7.470;2022-12-10T16:21:16;3.60;;;2.40;;
64252;SDS011;50592;52.958;-7.470;2022-12-10T16:23:42;4.85;;;3.00;;
64252;SDS011;50592;52.958;-7.470;2022-12-10T16:28:36;7.32;;;3.33;;
64252;SDS011;50592;52.958;-7.470;2022-12-10T16:31:02;5.38;;;3.47;;
64252;SDS011;50592;52.958;-7.470;2022-12-10T16:33:28;7.68;;;5.38;;
64252;SDS011;50592;52.958;-7.470;2022-12-10T16:35:54;10.13;;;5.88;;
64252;SDS011;50592;52.958;-7.470;2022-12-10T16:38:22;13.98;;;7.80;;
64252;SDS011;50592;52.958;-7.470;2022-12-10T16:40:49;15.00;;;7.88;;
64252;SDS011;50592;52.958;-7.470;2022-12-10T16:43:19;57.85;;;28.95;;
64252;SDS011;50592;52.958;-7.470;2022-12-10T16:45:47;31.25;;;16.98;;
64252;SDS011;50592;52.958;-7.470;2022-12-10T16:48:15;35.05;;;17.60;;
64252;SDS011;50592;52.958;-7.470;2022-12-10T16:50:41;22.88;;;11.98;;